Time;durP1;ratioP1;P1;durP2;ratioP2;P2;SDS_P1;SDS_P2;PMS_P1;PMS_P2;Temp;Humidity;BMP_temperature;BMP_pressure;BME280_temperature;BME280_humidity;BME280_pressure;Samples;Min_cycle;Max_cycle;Signal;HPM_P1;HPM_P2
2023/01/24 00:00:38;;;;;;;17.90;11.35;;;;;;;-143.48;75.85;118439.88;5093647;28;20036;-34
2023/01/24 00:03:04;;;;;;;19.90;11.95;;;;;;;-143.48;74.94;118439.88;5094256;28;20065;-34
2023/01/24 00:05:29;;;;;;;18.85;11.90;;;;;;;-143.48;75.40;118439.88;5093758;28;20063;-34
2023/01/24 00:07:55;;;;;;;20.15;12.15;;;;;;;-143.48;75.85;118439.88;5093554;28;20082;-34
2023/01/24 00:10:20;;;;;;;20.02;11.73;;;;;;;-143.48;75.49;118439.88;5093724;28;20099;-34
2023/01/24 00:12:45;;;;;;;18.85;11.02;;;;;;;-143.48;75.35;118439.88;5093510;28;20493;-34
2023/01/24 00:15:11;;;;;;;19.10;11.50;;;;;;;-143.48;74.83;118439.88;5093654;28;20024;-34
2023/01/24 00:17:36;;;;;;;18.55;11.35;;;;;;;-143.48;74.79;118439.88;5094111;28;20070;-34
2023/01/24 00:20:05;;;;;;;17.52;11.27;;;;;;;-143.48;74.88;118439.88;5093481;28;20026;-34
2023/01/24 00:22:30;;;;;;;19.92;11.80;;;;;;;-143.48;75.13;118439.88;5093690;28;20024;-34
2023/01/24 00:24:55;;;;;;;19.38;11.65;;;;;;;-143.48;74.08;118439.88;5093719;28;20031;-34
2023/01/24 00:27:21;;;;;;;18.35;11.63;;;;;;;-143.48;74.27;118439.88;5093670;28;20048;-34
2023/01/24 00:29:46;;;;;;;18.88;11.23;;;;;;;-143.48;74.51;118439.88;5093480;28;20020;-34
2023/01/24 00:32:11;;;;;;;19.45;12.23;;;;;;;-143.48;74.85;118439.88;5093758;28;20024;-34
2023/01/24 00:34:36;;;;;;;18.55;11.00;;;;;;;-143.48;74.37;118439.88;5093394;28;20099;-34
2023/01/24 00:37:02;;;;;;;20.75;12.48;;;;;;;-143.48;74.82;118439.88;5093291;28;20111;-34
2023/01/24 00:39:27;;;;;;;17.85;11.20;;;;;;;-143.48;73.88;118439.88;5093345;28;20089;-34
2023/01/24 00:41:52;;;;;;;17.80;11.70;;;;;;;-143.48;74.71;118439.88;5094409;28;20480;-34
2023/01/24 00:44:18;;;;;;;18.35;11.18;;;;;;;-143.48;74.82;118439.88;5097439;28;20035;-34
2023/01/24 00:46:43;;;;;;;20.02;12.00;;;;;;;-143.48;74.69;118439.88;5097648;28;20055;-34
2023/01/24 00:49:09;;;;;;;18.55;11.75;;;;;;;-143.48;74.01;118439.88;5097455;28;20097;-34
2023/01/24 00:51:34;;;;;;;19.17;11.15;;;;;;;-143.48;73.22;118439.88;5097607;28;20058;-34
2023/01/24 00:54:00;;;;;;;21.02;11.50;;;;;;;-143.48;74.22;118439.88;5097217;28;20060;-34
2023/01/24 00:56:25;;;;;;;21.60;12.80;;;;;;;-143.48;74.66;118439.88;5097145;28;20110;-34
2023/01/24 00:58:50;;;;;;;19.67;11.50;;;;;;;-143.48;74.27;118439.88;5097059;28;20027;-34
2023/01/24 01:01:16;;;;;;;17.67;10.85;;;;;;;-143.48;74.15;118439.88;5096993;28;20040;-34
2023/01/24 01:03:42;;;;;;;19.48;11.93;;;;;;;-143.48;74.38;118439.88;5079157;28;20035;-34
2023/01/24 01:06:13;;;;;;;20.60;11.98;;;;;;;-143.48;73.93;118439.88;5097098;28;20052;-34
2023/01/24 01:08:38;;;;;;;20.13;12.07;;;;;;;-143.48;74.00;118439.88;5097451;28;20133;-34
2023/01/24 01:11:04;;;;;;;18.95;11.85;;;;;;;-143.48;74.71;118439.88;5096810;28;20020;-34
2023/01/24 01:13:30;;;;;;;19.38;11.85;;;;;;;-143.48;73.83;118439.88;5096906;28;20024;-34
2023/01/24 01:16:07;;;;;;;17.92;11.35;;;;;;;-143.48;74.51;118439.88;5097129;28;20091;-34
2023/01/24 01:18:34;;;;;;;20.70;12.07;;;;;;;-143.48;74.22;118439.88;5096797;28;20046;-34
2023/01/24 01:21:00;;;;;;;19.67;11.70;;;;;;;-143.48;74.43;118439.88;5096750;28;20382;-34
2023/01/24 01:23:25;;;;;;;21.23;12.18;;;;;;;-143.48;73.98;118439.88;5096671;28;20073;-34
2023/01/24 01:25:51;;;;;;;19.70;12.00;;;;;;;-143.48;73.57;118439.88;5096868;28;20063;-34
2023/01/24 01:28:16;;;;;;;19.67;11.70;;;;;;;-143.48;73.69;118439.88;5097053;28;20020;-34
2023/01/24 01:30:41;;;;;;;20.85;12.75;;;;;;;-143.48;74.50;118439.88;5096752;28;20028;-34
2023/01/24 01:33:07;;;;;;;20.95;12.40;;;;;;;-143.48;74.48;118439.88;5096510;28;20377;-34
2023/01/24 01:35:32;;;;;;;23.60;12.20;;;;;;;-143.48;74.64;118439.88;5096697;28;20515;-34
2023/01/24 01:37:57;;;;;;;20.98;12.20;;;;;;;-143.48;75.28;118439.88;5096362;28;20055;-34
2023/01/24 01:40:22;;;;;;;21.02;12.70;;;;;;;-143.48;74.47;118439.88;5096608;28;20411;-34
2023/01/24 01:42:57;;;;;;;22.05;13.23;;;;;;;-143.48;74.79;118439.88;5096290;28;20016;-34
2023/01/24 01:45:45;;;;;;;23.42;13.60;;;;;;;-143.48;74.34;118439.88;5096244;28;20024;-34
2023/01/24 01:48:22;;;;;;;22.40;13.13;;;;;;;-143.48;74.61;118439.88;5096110;28;20424;-34
2023/01/24 01:50:59;;;;;;;22.35;13.55;;;;;;;-143.48;74.11;118439.88;5096465;28;20073;-34
2023/01/24 01:53:29;;;;;;;21.15;12.90;;;;;;;-143.48;74.90;118439.88;5095843;28;20024;-34
2023/01/24 01:56:01;;;;;;;22.15;12.90;;;;;;;-143.48;73.78;118439.88;5096861;28;20039;-34
2023/01/24 01:58:27;;;;;;;21.02;13.15;;;;;;;-143.48;74.12;118439.88;5096566;28;20103;-34
2023/01/24 02:00:53;;;;;;;21.60;12.70;;;;;;;-143.48;73.97;118439.88;5096265;28;20374;-34
2023/01/24 02:03:38;;;;;;;20.10;12.15;;;;;;;-143.48;74.41;118439.88;5096229;28;20076;-34
2023/01/24 02:06:05;;;;;;;21.40;12.73;;;;;;;-143.48;75.21;118439.88;5077553;28;20093;-34
2023/01/24 02:08:31;;;;;;;22.15;12.68;;;;;;;-143.48;75.30;118439.88;5095992;28;20111;-34
2023/01/24 02:13:43;;;;;;;22.50;13.10;;;;;;;-143.48;74.79;118439.88;5096596;28;20089;-34
2023/01/24 02:16:10;;;;;;;22.52;12.82;;;;;;;-143.48;74.38;118439.88;5095848;28;20032;-34
2023/01/24 02:18:38;;;;;;;21.05;12.60;;;;;;;-143.48;74.77;118439.88;5095935;28;20018;-34
2023/01/24 02:21:08;;;;;;;21.73;13.25;;;;;;;-143.48;74.54;118439.88;5095855;28;20502;-34
2023/01/24 02:23:37;;;;;;;21.45;12.65;;;;;;;-143.48;75.00;118439.88;5095817;28;20443;-34
2023/01/24 02:26:13;;;;;;;21.08;12.95;;;;;;;-143.48;74.68;118439.88;5095782;28;20067;-34
2023/01/24 02:28:44;;;;;;;21.20;12.80;;;;;;;-143.48;74.88;118439.88;5095687;28;20378;-34
2023/01/24 02:31:09;;;;;;;21.60;13.13;;;;;;;-143.48;74.93;118439.88;5095622;28;20039;-34
2023/01/24 02:33:35;;;;;;;21.63;13.00;;;;;;;-143.48;74.95;118439.88;5095368;28;20028;-34
2023/01/24 02:36:18;;;;;;;20.27;12.63;;;;;;;-143.48;74.36;118439.88;5095522;28;20016;-34
2023/01/24 02:38:50;;;;;;;21.25;12.93;;;;;;;-143.48;74.13;118439.88;5095523;28;20047;-34
2023/01/24 02:41:20;;;;;;;23.17;13.40;;;;;;;-143.48;75.04;118439.88;5077092;28;20023;-34
2023/01/24 02:43:49;;;;;;;19.98;12.45;;;;;;;-143.48;74.86;118439.88;5095234;28;20512;-34
2023/01/24 02:46:14;;;;;;;18.88;11.77;;;;;;;-143.48;74.19;118439.88;5095646;28;20028;-34
2023/01/24 02:48:40;;;;;;;19.27;11.57;;;;;;;-143.48;73.56;118439.88;5095000;28;20473;-34
2023/01/24 02:53:49;;;;;;;20.25;11.13;;;;;;;-143.48;72.99;118439.88;5094869;28;20338;-34
2023/01/24 02:58:58;;;;;;;18.88;10.82;;;;;;;-143.48;73.70;118439.88;5092715;28;20038;-34
2023/01/24 03:01:24;;;;;;;20.15;11.10;;;;;;;-143.48;73.29;118439.88;5074560;28;20047;-34
2023/01/24 03:03:50;;;;;;;18.13;10.75;;;;;;;-143.48;73.79;118439.88;5092383;28;20024;-34
2023/01/24 03:06:17;;;;;;;18.45;10.52;;;;;;;-143.48;73.53;118439.88;5070338;28;20517;-35
2023/01/24 03:08:43;;;;;;;20.73;11.80;;;;;;;-143.48;74.27;118439.88;5072542;28;20036;-34
2023/01/24 03:11:10;;;;;;;19.27;11.50;;;;;;;-143.48;73.86;118439.88;5073589;28;20028;-34
2023/01/24 03:35:32;;;;;;;20.38;11.85;;;;;;;-143.48;74.06;118439.88;5074512;28;20044;-34
2023/01/24 03:40:41;;;;;;;20.83;12.70;;;;;;;-143.48;74.93;118439.88;5074455;28;20116;-34
2023/01/24 03:43:06;;;;;;;21.48;12.40;;;;;;;-143.48;75.14;118439.88;5073874;28;20056;-34
2023/01/24 03:45:35;;;;;;;21.00;12.02;;;;;;;-143.48;74.94;118439.88;5074376;28;20074;-34
2023/01/24 03:48:03;;;;;;;21.92;12.73;;;;;;;-143.48;75.69;118439.88;5073653;28;20016;-34
2023/01/24 03:53:14;;;;;;;20.75;12.65;;;;;;;-143.48;74.80;118439.88;5073259;28;20055;-34
2023/01/24 03:55:40;;;;;;;24.48;12.52;;;;;;;-143.48;74.80;118439.88;5073669;28;20028;-34
2023/01/24 03:58:07;;;;;;;23.58;12.63;;;;;;;-143.48;75.04;118439.88;5073936;28;20066;-34
2023/01/24 04:00:33;;;;;;;22.50;12.95;;;;;;;-143.48;76.15;118439.88;5073495;28;20074;-34
2023/01/24 04:03:00;;;;;;;21.70;12.27;;;;;;;-143.48;75.96;118439.88;5073827;28;20024;-34
2023/01/24 04:05:25;;;;;;;20.52;12.38;;;;;;;-143.48;75.91;118439.88;5082391;28;20052;-34
2023/01/24 04:07:52;;;;;;;21.83;12.43;;;;;;;-143.48;76.36;118439.88;5093576;28;20038;-34
2023/01/24 04:10:17;;;;;;;18.23;10.85;;;;;;;-143.48;76.46;118439.88;5093947;28;20351;-34
2023/01/24 04:12:43;;;;;;;23.52;12.63;;;;;;;-143.48;74.96;118439.88;5093634;28;20160;-34
2023/01/24 04:15:15;;;;;;;21.75;11.73;;;;;;;-143.48;75.92;118439.88;5093936;28;20054;-34
2023/01/24 04:17:40;;;;;;;20.83;12.18;;;;;;;-143.48;76.64;118439.88;5093680;28;20514;-34
2023/01/24 04:20:06;;;;;;;21.27;11.70;;;;;;;-143.48;77.10;118439.88;5093869;28;20111;-34
2023/01/24 04:22:31;;;;;;;22.90;12.98;;;;;;;-143.48;77.38;118439.88;5093570;28;20032;-34
2023/01/24 04:24:57;;;;;;;19.25;11.63;;;;;;;-143.48;76.25;118439.88;5094182;28;20027;-34
2023/01/24 04:27:22;;;;;;;21.92;12.32;;;;;;;-143.48;77.54;118439.88;5093550;28;20427;-34
2023/01/24 04:29:47;;;;;;;22.30;12.80;;;;;;;-143.48;77.03;118439.88;5093958;28;20067;-34
2023/01/24 04:32:13;;;;;;;21.42;11.93;;;;;;;-143.48;77.32;118439.88;5075394;28;20039;-34
2023/01/24 04:34:39;;;;;;;22.70;12.50;;;;;;;-143.48;77.91;118439.88;5093489;28;20020;-34
2023/01/24 04:37:04;;;;;;;23.50;12.85;;;;;;;-143.48;77.90;118439.88;5093673;28;20373;-34
2023/01/24 04:39:29;;;;;;;21.88;12.80;;;;;;;-143.48;77.97;118439.88;5075399;28;20070;-34
2023/01/24 04:41:55;;;;;;;22.75;12.98;;;;;;;-143.48;77.56;118439.88;5093641;28;20481;-34
2023/01/24 04:44:20;;;;;;;19.73;11.13;;;;;;;-143.48;77.25;118439.88;5093673;28;20107;-34
2023/01/24 04:46:45;;;;;;;22.30;13.02;;;;;;;-143.48;78.17;118439.88;5075220;28;20030;-34
2023/01/24 04:49:11;;;;;;;22.90;12.88;;;;;;;-143.48;76.59;118439.88;5093234;28;20385;-34
2023/01/24 04:51:37;;;;;;;24.35;13.10;;;;;;;-143.48;76.99;118439.88;5093410;28;20032;-34
2023/01/24 04:54:02;;;;;;;23.02;12.98;;;;;;;-143.48;77.03;118439.88;5093651;28;20026;-34
2023/01/24 04:56:27;;;;;;;25.98;13.23;;;;;;;-143.48;77.00;118439.88;5075025;28;20488;-35
2023/01/24 04:58:53;;;;;;;24.05;12.70;;;;;;;-143.48;77.74;118439.88;5093011;28;20020;-34
2023/01/24 05:01:18;;;;;;;21.63;13.07;;;;;;;-143.48;77.26;118439.88;5093332;28;20032;-34
2023/01/24 05:03:43;;;;;;;22.02;12.68;;;;;;;-143.48;77.30;118439.88;5093041;28;20031;-34
2023/01/24 05:06:08;;;;;;;22.30;13.15;;;;;;;-143.48;77.19;118439.88;5093023;28;20047;-34
2023/01/24 05:08:34;;;;;;;22.33;11.88;;;;;;;-143.48;77.33;118439.88;5093411;28;20020;-34
2023/01/24 05:11:03;;;;;;;23.73;13.15;;;;;;;-143.48;76.75;118439.88;5092991;28;20051;-34
2023/01/24 05:13:28;;;;;;;19.45;11.90;;;;;;;-143.48;76.41;118439.88;5093216;28;20034;-34
2023/01/24 05:15:54;;;;;;;21.95;12.75;;;;;;;-143.48;76.31;118439.88;5093221;28;20036;-34
2023/01/24 05:18:19;;;;;;;23.95;13.27;;;;;;;-143.48;76.27;118439.88;5092847;28;20416;-34
2023/01/24 05:20:45;;;;;;;22.67;13.25;;;;;;;-143.48;76.63;118439.88;5092892;28;20024;-34
2023/01/24 05:23:10;;;;;;;21.50;12.85;;;;;;;-143.48;77.67;118439.88;5093287;28;20023;-34
2023/01/24 05:25:36;;;;;;;24.05;14.38;;;;;;;-143.48;77.88;118439.88;5093246;28;20474;-35
2023/01/24 05:28:01;;;;;;;23.02;12.70;;;;;;;-143.48;78.00;118439.88;5075709;28;20017;-35
2023/01/24 05:30:26;;;;;;;24.88;13.95;;;;;;;-143.48;78.25;118439.88;5096610;28;20028;-34
2023/01/24 05:32:58;;;;;;;25.15;13.88;;;;;;;-143.48;77.81;118439.88;5078436;28;20031;-34
2023/01/24 05:35:24;;;;;;;24.38;13.45;;;;;;;-143.48;77.63;118439.88;5097067;28;20026;-34
2023/01/24 05:37:50;;;;;;;26.90;14.45;;;;;;;-143.48;77.90;118439.88;5096958;28;20024;-34
2023/01/24 05:40:16;;;;;;;24.55;14.38;;;;;;;-143.48;77.26;118439.88;5096331;28;20028;-34
2023/01/24 05:42:42;;;;;;;26.85;14.95;;;;;;;-143.48;78.32;118439.88;5078896;28;20089;-35
2023/01/24 05:45:09;;;;;;;30.27;16.10;;;;;;;-143.48;76.62;118439.88;5078317;28;20488;-35
2023/01/24 05:47:34;;;;;;;26.58;14.85;;;;;;;-143.48;77.67;118439.88;5061422;28;20032;-34
2023/01/24 05:50:00;;;;;;;25.08;14.75;;;;;;;-143.48;78.28;118439.88;5096476;28;20027;-34
2023/01/24 05:52:25;;;;;;;29.48;16.05;;;;;;;-143.48;78.36;118439.88;5096218;28;20406;-34
2023/01/24 05:54:51;;;;;;;26.88;14.63;;;;;;;-143.48;78.35;118439.88;5096170;28;20058;-34
2023/01/24 05:57:17;;;;;;;26.48;14.85;;;;;;;-143.48;79.06;118439.88;5078034;28;20028;-34
2023/01/24 05:59:42;;;;;;;27.17;15.25;;;;;;;-143.48;78.33;118439.88;5095951;28;20099;-34
2023/01/24 06:02:08;;;;;;;25.67;13.85;;;;;;;-143.48;77.96;118439.88;5095976;28;20020;-34
2023/01/24 06:04:33;;;;;;;26.58;14.30;;;;;;;-143.48;77.46;118439.88;5095802;28;20470;-34
2023/01/24 06:06:58;;;;;;;29.23;14.52;;;;;;;-143.48;77.27;118439.88;5077857;28;20058;-34
2023/01/24 06:09:24;;;;;;;26.10;14.63;;;;;;;-143.48;77.04;118439.88;5096088;28;20080;-34
2023/01/24 06:11:49;;;;;;;28.98;15.45;;;;;;;-143.48;77.30;118439.88;5095716;28;20024;-34
2023/01/24 06:14:15;;;;;;;26.48;14.52;;;;;;;-143.48;77.82;118439.88;5095733;28;20487;-34
2023/01/24 06:16:43;;;;;;;29.08;15.40;;;;;;;-143.48;77.80;118439.88;5095736;28;20028;-34
2023/01/24 06:19:10;;;;;;;26.20;14.10;;;;;;;-143.48;77.70;118439.88;5095701;28;20028;-34
2023/01/24 06:21:43;;;;;;;26.20;14.93;;;;;;;-143.48;78.85;118439.88;5095533;28;20526;-34
2023/01/24 06:24:13;;;;;;;;;;;;;;;-143.48;79.26;118439.88;5096247;28;20036;-34
2023/01/24 06:26:40;;;;;;;25.70;14.02;;;;;;;-143.48;78.90;118439.88;5095469;28;19946;-34
2023/01/24 06:29:08;;;;;;;25.67;13.95;;;;;;;-143.48;78.77;118439.88;5094596;28;20016;-35
2023/01/24 06:31:42;;;;;;;30.88;15.43;;;;;;;-143.48;78.06;118439.88;5095734;28;20591;-34
2023/01/24 06:34:21;;;;;;;26.77;13.98;;;;;;;-143.48;78.20;118439.88;5095382;28;20026;-34
2023/01/24 06:37:21;;;;;;;28.85;15.32;;;;;;;-143.48;78.47;118439.88;5095338;28;20034;-34
2023/01/24 06:39:52;;;;;;;27.73;14.73;;;;;;;-143.48;77.85;118439.88;5095780;28;20103;-34
2023/01/24 06:42:19;;;;;;;25.30;14.05;;;;;;;-143.48;78.95;118439.88;5094833;28;20081;-34
2023/01/24 06:44:45;;;;;;;25.85;13.88;;;;;;;-143.48;79.44;118439.88;5093775;28;20165;-34
2023/01/24 06:47:11;;;;;;;24.88;13.82;;;;;;;-143.48;78.38;118439.88;5095203;28;20068;-34
2023/01/24 06:49:37;;;;;;;28.13;14.68;;;;;;;-143.48;78.59;118439.88;5093817;28;20103;-34
2023/01/24 06:52:03;;;;;;;27.05;14.38;;;;;;;-143.48;79.05;118439.88;5095021;28;20032;-34
2023/01/24 06:54:28;;;;;;;26.65;14.48;;;;;;;-143.48;79.45;118439.88;5076818;28;20028;-35
2023/01/24 06:56:53;;;;;;;24.88;13.68;;;;;;;-143.48;78.25;118439.88;5094153;28;20039;-35
2023/01/24 06:59:19;;;;;;;25.58;14.02;;;;;;;-143.48;79.37;118439.88;5092717;28;20065;-34
2023/01/24 07:01:45;;;;;;;26.08;13.82;;;;;;;-143.48;78.17;118439.88;5093156;28;20020;-34
2023/01/24 07:04:10;;;;;;;25.42;13.25;;;;;;;-143.48;78.47;118439.88;5093055;28;20030;-34
2023/01/24 07:06:35;;;;;;;25.48;14.00;;;;;;;-143.48;79.87;118439.88;5093178;28;20051;-34
2023/01/24 07:09:00;;;;;;;26.75;14.13;;;;;;;-143.48;79.61;118439.88;5093053;28;20097;-34
2023/01/24 07:11:26;;;;;;;24.63;13.95;;;;;;;-143.48;79.19;118439.88;5093075;28;20019;-34
2023/01/24 07:13:51;;;;;;;24.42;13.63;;;;;;;-143.48;79.02;118439.88;5094399;28;20374;-34
2023/01/24 07:16:16;;;;;;;22.35;12.65;;;;;;;-143.48;79.03;118439.88;5093566;28;20027;-34
2023/01/24 07:18:42;;;;;;;23.33;12.93;;;;;;;-143.48;79.80;118439.88;5093506;28;20044;-34
2023/01/24 07:21:08;;;;;;;24.33;12.95;;;;;;;-143.48;79.56;118439.88;5094332;28;20107;-35
2023/01/24 07:23:34;;;;;;;22.35;12.25;;;;;;;-143.48;80.49;118439.88;5093879;28;20019;-34
2023/01/24 07:26:00;;;;;;;24.50;12.05;;;;;;;-143.48;80.45;118439.88;5093554;28;20030;-34
2023/01/24 07:28:26;;;;;;;24.58;13.73;;;;;;;-143.48;80.34;118439.88;5094118;28;20032;-34
2023/01/24 07:30:52;;;;;;;24.90;13.60;;;;;;;-143.48;79.13;118439.88;5094196;28;20374;-34
2023/01/24 07:33:18;;;;;;;23.95;13.05;;;;;;;-143.48;79.51;118439.88;5093359;28;20085;-34
2023/01/24 07:35:44;;;;;;;24.95;12.52;;;;;;;-143.48;79.77;118439.88;5091761;28;20530;-34
2023/01/24 07:38:11;;;;;;;23.63;13.32;;;;;;;-143.48;79.73;118439.88;5092610;28;20031;-34
2023/01/24 07:40:37;;;;;;;25.35;13.48;;;;;;;-143.48;80.19;118439.88;5092198;28;20024;-34
2023/01/24 07:43:03;;;;;;;24.13;12.68;;;;;;;-143.48;79.44;118439.88;5091631;28;20054;-34
2023/01/24 07:45:29;;;;;;;20.98;12.00;;;;;;;-143.48;78.17;118439.88;5091895;28;20024;-34
2023/01/24 07:47:56;;;;;;;25.08;13.05;;;;;;;-143.48;78.75;118439.88;5091652;28;20050;-34
2023/01/24 07:50:22;;;;;;;23.45;13.23;;;;;;;-143.48;78.55;118439.88;5091367;28;20020;-34
2023/01/24 07:52:50;;;;;;;24.48;13.30;;;;;;;-143.48;78.76;118439.88;5091534;28;20051;-34
2023/01/24 07:55:16;;;;;;;24.00;13.27;;;;;;;-143.48;78.52;118439.88;5091730;28;20031;-34
2023/01/24 07:57:41;;;;;;;24.27;13.40;;;;;;;-143.48;78.19;118439.88;5091865;28;20020;-34
2023/01/24 08:00:10;;;;;;;22.85;12.52;;;;;;;-143.48;79.92;118439.88;5091532;28;20103;-35
2023/01/24 08:02:48;;;;;;;23.83;13.63;;;;;;;-143.48;80.10;118439.88;5073699;28;20028;-35
2023/01/24 08:05:17;;;;;;;24.25;13.95;;;;;;;-143.48;80.26;118439.88;5088738;28;20109;-34
2023/01/24 08:07:42;;;;;;;27.23;14.52;;;;;;;-143.48;79.87;118439.88;5075526;28;20031;-35
2023/01/24 08:10:08;;;;;;;24.77;13.60;;;;;;;-143.48;79.47;118439.88;5093564;28;20028;-35
2023/01/24 08:12:33;;;;;;;23.48;13.60;;;;;;;-143.48;78.49;118439.88;5092378;28;20023;-34
2023/01/24 08:14:58;;;;;;;25.60;13.35;;;;;;;-143.48;78.89;118439.88;5092017;28;20114;-35
2023/01/24 08:17:24;;;;;;;25.88;14.23;;;;;;;-143.48;80.41;118439.88;5090518;28;20020;-34
2023/01/24 08:19:49;;;;;;;25.15;14.32;;;;;;;-143.48;79.72;118439.88;5090819;28;20031;-34
2023/01/24 08:22:14;;;;;;;24.83;13.25;;;;;;;-143.48;79.32;118439.88;5091135;28;20023;-34
2023/01/24 08:24:40;;;;;;;31.02;13.98;;;;;;;-143.48;79.67;118439.88;5091209;28;20020;-34
2023/01/24 08:27:05;;;;;;;26.48;13.70;;;;;;;-143.48;79.27;118439.88;5091475;28;20027;-34
2023/01/24 08:29:31;;;;;;;28.30;14.70;;;;;;;-143.48;80.00;118439.88;5090980;28;20352;-34
2023/01/24 08:31:58;;;;;;;26.30;14.52;;;;;;;-143.48;80.34;118439.88;5092634;28;20035;-34
2023/01/24 08:34:23;;;;;;;23.40;13.43;;;;;;;-143.48;80.61;118439.88;5091974;28;20494;-34
2023/01/24 08:36:49;;;;;;;26.17;14.20;;;;;;;-143.48;81.08;118439.88;5092946;28;20098;-34
2023/01/24 08:39:14;;;;;;;25.27;14.45;;;;;;;-143.48;80.14;118439.88;5074868;28;20104;-34
2023/01/24 08:41:43;;;;;;;26.13;14.13;;;;;;;-143.48;80.47;118439.88;5092280;28;20085;-34
2023/01/24 08:44:08;;;;;;;26.20;14.90;;;;;;;-143.48;79.61;118439.88;5072923;28;20059;-34
2023/01/24 08:46:33;;;;;;;25.55;15.02;;;;;;;-143.48;80.26;118439.88;5093153;28;20052;-34
2023/01/24 08:48:59;;;;;;;27.42;15.65;;;;;;;-143.48;79.52;118439.88;5093710;28;20024;-34
2023/01/24 08:51:24;;;;;;;28.90;15.50;;;;;;;-143.48;80.63;118439.88;5093111;28;20028;-34
2023/01/24 08:53:50;;;;;;;27.13;14.63;;;;;;;-143.48;80.14;118439.88;5093087;28;20436;-34
2023/01/24 08:56:15;;;;;;;27.02;14.85;;;;;;;-143.48;79.01;118439.88;5092980;28;20026;-34
2023/01/24 08:58:41;;;;;;;27.77;16.58;;;;;;;-143.48;79.90;118439.88;5092396;28;20081;-34
2023/01/24 09:01:07;;;;;;;25.13;15.30;;;;;;;-143.48;79.58;118439.88;5092212;28;20059;-34
2023/01/24 09:03:33;;;;;;;27.90;15.55;;;;;;;-143.48;78.72;118439.88;5095185;28;20024;-34
2023/01/24 09:05:58;;;;;;;28.50;15.30;;;;;;;-143.48;78.21;118439.88;5096685;28;20113;-34
2023/01/24 09:08:24;;;;;;;26.55;15.38;;;;;;;-143.48;78.45;118439.88;5097081;28;20458;-34
2023/01/24 09:10:49;;;;;;;30.77;16.05;;;;;;;-143.48;77.82;118439.88;5096765;28;20024;-34
2023/01/24 09:13:15;;;;;;;28.25;15.93;;;;;;;-143.48;78.66;118439.88;5097005;28;20028;-34
2023/01/24 09:15:40;;;;;;;28.70;15.98;;;;;;;-143.48;77.72;118439.88;5096780;28;20074;-34
2023/01/24 09:18:05;;;;;;;29.38;16.25;;;;;;;-143.48;78.07;118439.88;5096958;28;20020;-34
2023/01/24 09:20:31;;;;;;;27.35;16.25;;;;;;;-143.48;77.52;118439.88;5096990;28;20432;-34
2023/01/24 09:22:56;;;;;;;25.80;15.95;;;;;;;-143.48;78.97;118439.88;5096592;28;20028;-34
2023/01/24 09:25:22;;;;;;;30.60;16.58;;;;;;;-143.48;80.16;118439.88;5096709;28;20020;-34
2023/01/24 09:27:54;;;;;;;33.97;16.80;;;;;;;-143.48;79.77;118439.88;5096670;28;20047;-34
2023/01/24 09:30:21;;;;;;;29.80;16.88;;;;;;;-143.48;78.94;118439.88;5096474;28;20055;-34
2023/01/24 09:32:47;;;;;;;29.58;17.38;;;;;;;-143.48;79.50;118439.88;5096459;28;20474;-33
2023/01/24 09:35:13;;;;;;;29.00;16.10;;;;;;;-143.48;78.82;118439.88;5096584;28;20026;-33
2023/01/24 09:37:39;;;;;;;28.58;16.38;;;;;;;-143.48;79.90;118439.88;5096431;28;20466;-33
2023/01/24 09:40:12;;;;;;;29.25;16.83;;;;;;;-143.48;79.77;118439.88;5095938;28;20024;-33
2023/01/24 09:42:44;;;;;;;30.48;16.60;;;;;;;-143.48;79.66;118439.88;5077969;28;20036;-33
2023/01/24 09:45:21;;;;;;;30.73;17.67;;;;;;;-143.48;78.54;118439.88;5096089;28;20031;-33
2023/01/24 09:47:59;;;;;;;30.08;15.93;;;;;;;-143.48;79.40;118439.88;5096159;28;20027;-33
2023/01/24 09:50:41;;;;;;;28.75;16.20;;;;;;;-143.48;79.74;118439.88;5094997;28;20109;-34
2023/01/24 09:53:15;;;;;;;30.13;16.33;;;;;;;-143.48;79.37;118439.88;5096201;28;20020;-34
2023/01/24 09:55:42;;;;;;;30.17;17.60;;;;;;;-143.48;79.39;118439.88;5077600;28;20032;-34
2023/01/24 09:58:31;;;;;;;28.80;16.63;;;;;;;-143.48;79.56;118439.88;5095748;28;20107;-34
2023/01/24 10:01:08;;;;;;;31.98;16.35;;;;;;;-143.48;78.80;118439.88;5096058;28;20047;-34
2023/01/24 10:03:34;;;;;;;29.08;16.27;;;;;;;-143.48;79.06;118439.88;5096460;28;20028;-34
2023/01/24 10:06:16;;;;;;;29.33;16.77;;;;;;;-143.48;78.52;118439.88;5077310;28;20050;-34
2023/01/24 10:09:09;;;;;;;31.37;16.33;;;;;;;-143.48;78.75;118439.88;5077446;28;20428;-34
2023/01/24 10:11:55;;;;;;;29.90;16.25;;;;;;;-143.48;79.60;118439.88;5095997;28;20492;-34
2023/01/24 10:14:35;;;;;;;30.88;16.38;;;;;;;-143.48;80.19;118439.88;5095022;28;20106;-34
2023/01/24 10:17:21;;;;;;;30.10;16.92;;;;;;;-143.48;78.61;118439.88;5095511;28;20024;-34
2023/01/24 10:19:57;;;;;;;32.63;16.60;;;;;;;-143.48;79.48;118439.88;5096024;28;20024;-34
2023/01/24 10:22:43;;;;;;;30.88;16.80;;;;;;;-143.48;79.11;118439.88;5095893;28;20028;-34
2023/01/24 10:25:24;;;;;;;34.03;15.95;;;;;;;-143.48;79.69;118439.88;5095717;28;20055;-34
2023/01/24 10:27:54;;;;;;;27.23;14.40;;;;;;;-143.48;79.49;118439.88;5095224;28;20106;-34
2023/01/24 10:30:30;;;;;;;27.08;15.40;;;;;;;-143.48;78.77;118439.88;5095392;28;20035;-34
2023/01/24 10:33:01;;;;;;;30.75;16.45;;;;;;;-143.48;79.60;118439.88;5095716;28;20028;-34
2023/01/24 10:35:43;;;;;;;28.85;16.27;;;;;;;-143.48;78.29;118439.88;5095231;28;20035;-34
2023/01/24 10:38:14;;;;;;;28.63;16.73;;;;;;;-143.48;78.17;118439.88;5095345;28;20104;-34
2023/01/24 10:41:11;;;;;;;27.60;15.13;;;;;;;-143.48;77.17;118439.88;5095094;28;20470;-35
2023/01/24 10:43:38;;;;;;;25.27;14.48;;;;;;;-143.48;78.30;118439.88;5078997;28;20498;-34
2023/01/24 10:46:28;;;;;;;26.77;14.63;;;;;;;-143.48;79.79;118439.88;5094816;28;20035;-34
2023/01/24 10:48:56;;;;;;;25.83;14.20;;;;;;;-143.48;78.21;118439.88;5094869;28;20032;-34
2023/01/24 10:51:23;;;;;;;23.15;13.45;;;;;;;-143.48;77.58;118439.88;5094889;28;20020;-34
2023/01/24 10:53:49;;;;;;;27.75;14.02;;;;;;;-143.48;78.30;118439.88;5094800;28;20081;-34
2023/01/24 10:56:18;;;;;;;24.08;13.80;;;;;;;-143.48;78.27;118439.88;5094768;28;20044;-34
2023/01/24 10:59:00;;;;;;;24.73;13.70;;;;;;;-143.48;77.72;118439.88;5094930;28;20028;-34
2023/01/24 11:01:42;;;;;;;25.75;14.88;;;;;;;-143.48;79.32;118439.88;5077765;28;20024;-34
2023/01/24 11:04:15;;;;;;;25.20;13.60;;;;;;;-143.48;78.73;118439.88;5093994;28;20055;-34
2023/01/24 11:06:40;;;;;;;26.33;14.37;;;;;;;-143.48;78.95;118439.88;5094410;28;20056;-34
2023/01/24 11:09:34;;;;;;;23.23;13.40;;;;;;;-143.48;77.54;118439.88;5094553;28;20059;-34
2023/01/24 11:12:00;;;;;;;25.15;13.95;;;;;;;-143.48;78.66;118439.88;5091909;28;20036;-34
2023/01/24 11:14:28;;;;;;;25.10;14.30;;;;;;;-143.48;78.82;118439.88;5095068;28;20028;-34
2023/01/24 11:16:57;;;;;;;23.15;13.73;;;;;;;-143.48;77.64;118439.88;5094531;28;20016;-34
2023/01/24 11:19:32;;;;;;;24.63;12.80;;;;;;;-143.48;77.20;118439.88;5094289;28;20019;-34
2023/01/24 11:22:04;;;;;;;25.17;14.13;;;;;;;-143.48;78.47;118439.88;5077036;28;20450;-34
2023/01/24 11:24:30;;;;;;;24.75;13.95;;;;;;;-143.48;78.71;118439.88;5094527;28;20031;-34
2023/01/24 11:27:12;;;;;;;22.85;13.23;;;;;;;-143.48;78.27;118439.88;5074114;28;20020;-34
2023/01/24 11:29:38;;;;;;;23.00;12.50;;;;;;;-143.48;77.69;118439.88;5094457;28;20020;-34
2023/01/24 11:32:32;;;;;;;21.17;11.98;;;;;;;-143.48;77.68;118439.88;5093861;28;20032;-34
2023/01/24 11:35:12;;;;;;;22.08;12.52;;;;;;;-143.48;77.80;118439.88;5093936;28;20102;-34